sensor_id;sensor_type;location;lat;lon;timestamp;pressure;altitude;pressure_sealevel;temperature;humidity
66206;BME280;53009;52.490;4.976;2023-03-23T00:01:02;100100;;;11.8;100
66206;BME280;53009;52.490;4.976;2023-03-23T00:02:01;100100;;;11.8;100
66206;BME280;53009;52.490;4.976;2023-03-23T00:06:32;100100;;;11.8;100
66206;BME280;53009;52.490;4.976;2023-03-23T00:11:32;100100;;;11.9;100
66206;BME280;53009;52.490;4.976;2023-03-23T00:16:13;100100;;;11.9;100
66206;BME280;53009;52.490;4.976;2023-03-23T00:17:20;100100;;;11.9;100
66206;BME280;53009;52.490;4.976;2023-03-23T00:18:01;100100;;;11.9;100
66206;BME280;53009;52.490;4.976;2023-03-23T00:20:16;100100;;;11.9;100
66206;BME280;53009;52.490;4.976;2023-03-23T00:22:14;100100;;;11.9;100
66206;BME280;53009;52.490;4.976;2023-03-23T00:24:23;100100;;;11.9;100
66206;BME280;53009;52.490;4.976;2023-03-23T00:29:23;100100;;;11.9;100
66206;BME280;53009;52.490;4.976;2023-03-23T00:30:02;100100;;;11.9;100
66206;BME280;53009;52.490;4.976;2023-03-23T00:31:02;100100;;;11.9;100
66206;BME280;53009;52.490;4.976;2023-03-23T00:34:23;100100;;;11.9;100
66206;BME280;53009;52.490;4.976;2023-03-23T00:39:22;100100;;;11.9;100
66206;BME280;53009;52.490;4.976;2023-03-23T00:40:01;100100;;;11.9;100
66206;BME280;53009;52.490;4.976;2023-03-23T00:41:01;100100;;;11.9;100
66206;BME280;53009;52.490;4.976;2023-03-23T00:44:17;100100;;;11.9;100
66206;BME280;53009;52.490;4.976;2023-03-23T00:47:23;100100;;;11.9;100
66206;BME280;53009;52.490;4.976;2023-03-23T00:48:01;100100;;;11.9;100
66206;BME280;53009;52.490;4.976;2023-03-23T00:52:02;100100;;;11.9;100
66206;BME280;53009;52.490;4.976;2023-03-23T00:56:24;100100;;;11.9;100
66206;BME280;53009;52.490;4.976;2023-03-23T01:00:58;100100;;;12;100
66206;BME280;53009;52.490;4.976;2023-03-23T01:02:03;100100;;;11.9;100
66206;BME280;53009;52.490;4.976;2023-03-23T01:06:16;100100;;;12;100
66206;BME280;53009;52.490;4.976;2023-03-23T01:07:37;100100;;;12;100
66206;BME280;53009;52.490;4.976;2023-03-23T01:09:00;100100;;;12;100
66206;BME280;53009;52.490;4.976;2023-03-23T01:14:00;100100;;;12;100
66206;BME280;53009;52.490;4.976;2023-03-23T01:15:23;100100;;;12;100
66206;BME280;53009;52.490;4.976;2023-03-23T01:18:23;100100;;;12;100
66206;BME280;53009;52.490;4.976;2023-03-23T01:19:38;100100;;;12;100
66206;BME280;53009;52.490;4.976;2023-03-23T01:21:48;100100;;;12;100
66206;BME280;53009;52.490;4.976;2023-03-23T01:24:54;100100;;;12;100
66206;BME280;53009;52.490;4.976;2023-03-23T01:28:56;100100;;;12;100
66206;BME280;53009;52.490;4.976;2023-03-23T01:30:59;100000;;;12;100
66206;BME280;53009;52.490;4.976;2023-03-23T01:33:02;100000;;;12;100
66206;BME280;53009;52.490;4.976;2023-03-23T01:34:23;100000;;;12;100
66206;BME280;53009;52.490;4.976;2023-03-23T01:38:17;100000;;;11.9;100
66206;BME280;53009;52.490;4.976;2023-03-23T01:43:17;100000;;;12;100
66206;BME280;53009;52.490;4.976;2023-03-23T01:45:25;100000;;;12;100
66206;BME280;53009;52.490;4.976;2023-03-23T01:46:47;100000;;;12;100
66206;BME280;53009;52.490;4.976;2023-03-23T01:50:09;100000;;;12;100
66206;BME280;53009;52.490;4.976;2023-03-23T01:51:28;100000;;;12;100
66206;BME280;53009;52.490;4.976;2023-03-23T01:53:46;100000;;;12;100
66206;BME280;53009;52.490;4.976;2023-03-23T01:56:11;100000;;;12;100
66206;BME280;53009;52.490;4.976;2023-03-23T02:00:01;100000;;;12;100
66206;BME280;53009;52.490;4.976;2023-03-23T02:02:26;100000;;;12;100
66206;BME280;53009;52.490;4.976;2023-03-23T02:05:56;100000;;;12;100
66206;BME280;53009;52.490;4.976;2023-03-23T02:08:06;100000;;;12;100
66206;BME280;53009;52.490;4.976;2023-03-23T02:12:24;100000;;;12;100
66206;BME280;53009;52.490;4.976;2023-03-23T02:16:43;100000;;;12;100
66206;BME280;53009;52.490;4.976;2023-03-23T02:18:53;100000;;;12;100
66206;BME280;53009;52.490;4.976;2023-03-23T02:22:43;100000;;;12;100
66206;BME280;53009;52.490;4.976;2023-03-23T02:23:48;100000;;;12;100
66206;BME280;53009;52.490;4.976;2023-03-23T02:24:59;100000;;;12;100
66206;BME280;53009;52.490;4.976;2023-03-23T02:25:53;100000;;;12;100
66206;BME280;53009;52.490;4.976;2023-03-23T02:30:19;100000;;;12;100
66206;BME280;53009;52.490;4.976;2023-03-23T02:32:41;100000;;;12;100
66206;BME280;53009;52.490;4.976;2023-03-23T02:33:53;100000;;;11.9;100
66206;BME280;53009;52.490;4.976;2023-03-23T02:34:19;100000;;;11.9;100
66206;BME280;53009;52.490;4.976;2023-03-23T02:35:34;100000;;;11.9;100
66206;BME280;53009;52.490;4.976;2023-03-23T02:39:45;100000;;;11.9;100
66206;BME280;53009;52.490;4.976;2023-03-23T02:40:59;100000;;;11.8;100
66206;BME280;53009;52.490;4.976;2023-03-23T02:41:49;100000;;;11.9;100
66206;BME280;53009;52.490;4.976;2023-03-23T02:43:13;100000;;;11.8;100
66206;BME280;53009;52.490;4.976;2023-03-23T02:46:42;100000;;;11.8;100
66206;BME280;53009;52.490;4.976;2023-03-23T02:47:41;100000;;;11.8;100
66206;BME280;53009;52.490;4.976;2023-03-23T02:51:59;100000;;;11.8;100
66206;BME280;53009;52.490;4.976;2023-03-23T02:52:56;100000;;;11.8;100
66206;BME280;53009;52.490;4.976;2023-03-23T02:54:07;100000;;;11.8;100
66206;BME280;53009;52.490;4.976;2023-03-23T02:59:07;100000;;;11.8;100
66206;BME280;53009;52.490;4.976;2023-03-23T03:04:09;100000;;;11.8;100
66206;BME280;53009;52.490;4.976;2023-03-23T03:05:02;100000;;;11.8;100
66206;BME280;53009;52.490;4.976;2023-03-23T03:06:03;100000;;;11.8;100
66206;BME280;53009;52.490;4.976;2023-03-23T03:10:59;100000;;;11.7;100
66206;BME280;53009;52.490;4.976;2023-03-23T03:15:59;100000;;;11.7;100
66206;BME280;53009;52.490;4.976;2023-03-23T03:16:26;100000;;;11.7;100
66206;BME280;53009;52.490;4.976;2023-03-23T03:21:25;100000;;;11.7;100
66206;BME280;53009;52.490;4.976;2023-03-23T03:26:24;100000;;;11.7;100
66206;BME280;53009;52.490;4.976;2023-03-23T03:27:01;100000;;;11.6;100
66206;BME280;53009;52.490;4.976;2023-03-23T03:29:08;100000;;;11.6;100
66206;BME280;53009;52.490;4.976;2023-03-23T03:34:08;100000;;;11.6;100
66206;BME280;53009;52.490;4.976;2023-03-23T03:35:27;100000;;;11.6;100
66206;BME280;53009;52.490;4.976;2023-03-23T03:39:53;100100;;;11.5;100
66206;BME280;53009;52.490;4.976;2023-03-23T03:43:15;100100;;;11.5;100
66206;BME280;53009;52.490;4.976;2023-03-23T03:47:40;100000;;;11.4;100
66206;BME280;53009;52.490;4.976;2023-03-23T03:52:03;100000;;;11.3;100
66206;BME280;53009;52.490;4.976;2023-03-23T03:56:29;100000;;;11.3;100
66206;BME280;53009;52.490;4.976;2023-03-23T03:57:54;100000;;;11.3;100
66206;BME280;53009;52.490;4.976;2023-03-23T04:00:52;100000;;;11.3;100
66206;BME280;53009;52.490;4.976;2023-03-23T04:02:06;100000;;;11.3;100
66206;BME280;53009;52.490;4.976;2023-03-23T04:05:01;100000;;;11.3;100
66206;BME280;53009;52.490;4.976;2023-03-23T04:06:01;100000;;;11.4;100
66206;BME280;53009;52.490;4.976;2023-03-23T04:10:29;100000;;;11.4;100
66206;BME280;53009;52.490;4.976;2023-03-23T04:14:03;100000;;;11.4;100
66206;BME280;53009;52.490;4.976;2023-03-23T04:17:33;100000;;;11.4;100
66206;BME280;53009;52.490;4.976;2023-03-23T04:20:40;100000;;;11.4;100
66206;BME280;53009;52.490;4.976;2023-03-23T04:21:14;100000;;;11.4;100
66206;BME280;53009;52.490;4.976;2023-03-23T04:23:01;100000;;;11.3;100
66206;BME280;53009;52.490;4.976;2023-03-23T04:26:02;100000;;;11.3;100
66206;BME280;53009;52.490;4.976;2023-03-23T04:27:52;100000;;;11.3;100
66206;BME280;53009;52.490;4.976;2023-03-23T04:29:05;100100;;;11.3;100
66206;BME280;53009;52.490;4.976;2023-03-23T04:33:32;100100;;;11.3;100
66206;BME280;53009;52.490;4.976;2023-03-23T04:35:47;100100;;;11.3;100
66206;BME280;53009;52.490;4.976;2023-03-23T04:40:47;100100;;;11.3;100
66206;BME280;53009;52.490;4.976;2023-03-23T04:42:01;100100;;;11.3;100
66206;BME280;53009;52.490;4.976;2023-03-23T04:43:46;100100;;;11.3;100
66206;BME280;53009;52.490;4.976;2023-03-23T04:48:38;100100;;;11.3;100
66206;BME280;53009;52.490;4.976;2023-03-23T04:49:54;100100;;;11.3;100
66206;BME280;53009;52.490;4.976;2023-03-23T04:51:57;100100;;;11.3;100
66206;BME280;53009;52.490;4.976;2023-03-23T04:54:19;100100;;;11.2;100
66206;BME280;53009;52.490;4.976;2023-03-23T04:58:05;100100;;;11.2;100
66206;BME280;53009;52.490;4.976;2023-03-23T05:01:37;100100;;;11.2;100
66206;BME280;53009;52.490;4.976;2023-03-23T05:02:44;100100;;;11.2;100
66206;BME280;53009;52.490;4.976;2023-03-23T05:07:44;100100;;;11.1;100
66206;BME280;53009;52.490;4.976;2023-03-23T05:12:44;100100;;;11.1;100
66206;BME280;53009;52.490;4.976;2023-03-23T05:13:25;100100;;;11.1;100
66206;BME280;53009;52.490;4.976;2023-03-23T05:15:36;100100;;;11.1;100
66206;BME280;53009;52.490;4.976;2023-03-23T05:16:49;100100;;;11.1;100
66206;BME280;53009;52.490;4.976;2023-03-23T05:17:56;100100;;;11.1;100
66206;BME280;53009;52.490;4.976;2023-03-23T05:18:27;100100;;;11.1;100
66206;BME280;53009;52.490;4.976;2023-03-23T05:23:24;100100;;;11.1;100
66206;BME280;53009;52.490;4.976;2023-03-23T05:27:58;100100;;;11.1;100
66206;BME280;53009;52.490;4.976;2023-03-23T05:29:31;100100;;;11.1;100
66206;BME280;53009;52.490;4.976;2023-03-23T05:30:37;100100;;;11.1;100
66206;BME280;53009;52.490;4.976;2023-03-23T05:33:43;100100;;;11.1;100
66206;BME280;53009;52.490;4.976;2023-03-23T05:34:49;100100;;;11.1;100
66206;BME280;53009;52.490;4.976;2023-03-23T05:36:59;100100;;;11.1;100
66206;BME280;53009;52.490;4.976;2023-03-23T05:38:05;100100;;;11.1;100
66206;BME280;53009;52.490;4.976;2023-03-23T05:39:01;100100;;;11;100
66206;BME280;53009;52.490;4.976;2023-03-23T05:44:00;100100;;;11;100
66206;BME280;53009;52.490;4.976;2023-03-23T05:44:25;100100;;;11;100
66206;BME280;53009;52.490;4.976;2023-03-23T05:49:25;100100;;;11;100
66206;BME280;53009;52.490;4.976;2023-03-23T05:50:01;100100;;;11;100
66206;BME280;53009;52.490;4.976;2023-03-23T05:51:06;100100;;;11;100
66206;BME280;53009;52.490;4.976;2023-03-23T05:55:58;100100;;;10.9;100
66206;BME280;53009;52.490;4.976;2023-03-23T05:57:19;100100;;;10.9;100
66206;BME280;53009;52.490;4.976;2023-03-23T05:59:06;100100;;;10.9;100
66206;BME280;53009;52.490;4.976;2023-03-23T06:02:32;100100;;;10.9;100
66206;BME280;53009;52.490;4.976;2023-03-23T06:04:18;100200;;;10.9;100
66206;BME280;53009;52.490;4.976;2023-03-23T06:09:18;100100;;;10.9;100
66206;BME280;53009;52.490;4.976;2023-03-23T06:10:47;100100;;;10.9;100
66206;BME280;53009;52.490;4.976;2023-03-23T06:12:01;100100;;;10.9;100
66206;BME280;53009;52.490;4.976;2023-03-23T06:14:01;100200;;;10.9;100
66206;BME280;53009;52.490;4.976;2023-03-23T06:18:31;100200;;;11;100
66206;BME280;53009;52.490;4.976;2023-03-23T06:23:31;100200;;;11;100
66206;BME280;53009;52.490;4.976;2023-03-23T06:24:01;100200;;;11;100
66206;BME280;53009;52.490;4.976;2023-03-23T06:25:01;100200;;;11;100
66206;BME280;53009;52.490;4.976;2023-03-23T06:27:18;100200;;;11;100
66206;BME280;53009;52.490;4.976;2023-03-23T06:28:01;100200;;;11;100
66206;BME280;53009;52.490;4.976;2023-03-23T06:29:16;100200;;;11;100
66206;BME280;53009;52.490;4.976;2023-03-23T06:32:36;100200;;;11;100
66206;BME280;53009;52.490;4.976;2023-03-23T06:37:36;100200;;;11.1;100
66206;BME280;53009;52.490;4.976;2023-03-23T06:38:24;100200;;;11.1;100
66206;BME280;53009;52.490;4.976;2023-03-23T06:39:18;100200;;;11;100
66206;BME280;53009;52.490;4.976;2023-03-23T06:42:51;100200;;;11;100
66206;BME280;53009;52.490;4.976;2023-03-23T06:46:20;100200;;;11.1;100
66206;BME280;53009;52.490;4.976;2023-03-23T06:49:01;100200;;;11.1;100
66206;BME280;53009;52.490;4.976;2023-03-23T06:50:01;100200;;;11.1;100
66206;BME280;53009;52.490;4.976;2023-03-23T06:51:35;100200;;;11.1;100
66206;BME280;53009;52.490;4.976;2023-03-23T06:53:01;100200;;;11.1;100
66206;BME280;53009;52.490;4.976;2023-03-23T06:54:43;100200;;;11.1;100
66206;BME280;53009;52.490;4.976;2023-03-23T06:55:01;100200;;;11.1;100
66206;BME280;53009;52.490;4.976;2023-03-23T07:00:06;100200;;;11.2;100
66206;BME280;53009;52.490;4.976;2023-03-23T07:01:01;100200;;;11.2;100
66206;BME280;53009;52.490;4.976;2023-03-23T07:03:24;100200;;;11.2;100
66206;BME280;53009;52.490;4.976;2023-03-23T07:06:31;100200;;;11.2;100
66206;BME280;53009;52.490;4.976;2023-03-23T07:11:31;100200;;;11.2;100
66206;BME280;53009;52.490;4.976;2023-03-23T07:13:57;100200;;;11.2;100
66206;BME280;53009;52.490;4.976;2023-03-23T07:14:48;100200;;;11.2;100
66206;BME280;53009;52.490;4.976;2023-03-23T07:17:13;100200;;;11.2;100
66206;BME280;53009;52.490;4.976;2023-03-23T07:22:13;100200;;;11.3;100
66206;BME280;53009;52.490;4.976;2023-03-23T07:27:13;100200;;;11.3;100
66206;BME280;53009;52.490;4.976;2023-03-23T07:32:13;100200;;;11.3;100
66206;BME280;53009;52.490;4.976;2023-03-23T07:34:01;100200;;;11.3;100
66206;BME280;53009;52.490;4.976;2023-03-23T07:35:01;100200;;;11.3;100
66206;BME280;53009;52.490;4.976;2023-03-23T07:38:01;100200;;;11.3;100
66206;BME280;53009;52.490;4.976;2023-03-23T07:40:30;100200;;;11.3;100
66206;BME280;53009;52.490;4.976;2023-03-23T07:42:00;100200;;;11.3;100
66206;BME280;53009;52.490;4.976;2023-03-23T07:44:50;100200;;;11.3;100
66206;BME280;53009;52.490;4.976;2023-03-23T07:46:03;100200;;;11.3;100
66206;BME280;53009;52.490;4.976;2023-03-23T07:47:20;100200;;;11.3;100
66206;BME280;53009;52.490;4.976;2023-03-23T07:50:17;100200;;;11.3;100
66206;BME280;53009;52.490;4.976;2023-03-23T07:53:27;100200;;;11.5;100
66206;BME280;53009;52.490;4.976;2023-03-23T07:54:13;100200;;;11.5;100
66206;BME280;53009;52.490;4.976;2023-03-23T07:59:13;100200;;;11.8;100
66206;BME280;53009;52.490;4.976;2023-03-23T08:00:06;100300;;;11.8;100
66206;BME280;53009;52.490;4.976;2023-03-23T08:04:08;100200;;;12;100
66206;BME280;53009;52.490;4.976;2023-03-23T08:05:01;100200;;;12.1;100
66206;BME280;53009;52.490;4.976;2023-03-23T08:09:30;100200;;;12.3;100
66206;BME280;53009;52.490;4.976;2023-03-23T08:11:52;100300;;;12.3;100
66206;BME280;53009;52.490;4.976;2023-03-23T08:12:58;100300;;;12.3;100
66206;BME280;53009;52.490;4.976;2023-03-23T08:16:42;100300;;;12.4;100
66206;BME280;53009;52.490;4.976;2023-03-23T08:17:36;100300;;;12.3;100
66206;BME280;53009;52.490;4.976;2023-03-23T08:18:25;100300;;;12.3;100
66206;BME280;53009;52.490;4.976;2023-03-23T08:23:25;100300;;;12.5;100
66206;BME280;53009;52.490;4.976;2023-03-23T08:25:16;100300;;;12.6;100
66206;BME280;53009;52.490;4.976;2023-03-23T08:26:01;100300;;;12.6;100
66206;BME280;53009;52.490;4.976;2023-03-23T08:29:13;100300;;;12.7;100
66206;BME280;53009;52.490;4.976;2023-03-23T08:31:05;100300;;;12.7;100
66206;BME280;53009;52.490;4.976;2023-03-23T08:32:01;100300;;;12.6;100
66206;BME280;53009;52.490;4.976;2023-03-23T08:33:21;100300;;;12.5;100
66206;BME280;53009;52.490;4.976;2023-03-23T08:34:16;100300;;;12.4;100
66206;BME280;53009;52.490;4.976;2023-03-23T08:36:20;100300;;;12.5;100
66206;BME280;53009;52.490;4.976;2023-03-23T08:37:01;100300;;;12.5;100
66206;BME280;53009;52.490;4.976;2023-03-23T08:41:54;100300;;;12.7;100
66206;BME280;53009;52.490;4.976;2023-03-23T08:46:54;100300;;;13;100
66206;BME280;53009;52.490;4.976;2023-03-23T08:48:01;100300;;;13.1;100
66206;BME280;53009;52.490;4.976;2023-03-23T08:49:15;100300;;;13;100
66206;BME280;53009;52.490;4.976;2023-03-23T08:51:01;100300;;;13;100
66206;BME280;53009;52.490;4.976;2023-03-23T08:52:01;100300;;;13;100
66206;BME280;53009;52.490;4.976;2023-03-23T08:56:32;100400;;;13.2;100
66206;BME280;53009;52.490;4.976;2023-03-23T08:57:48;100400;;;13.3;100
66206;BME280;53009;52.490;4.976;2023-03-23T09:02:49;100400;;;13.2;100
66206;BME280;53009;52.490;4.976;2023-03-23T09:07:49;100300;;;13.4;100
66206;BME280;53009;52.490;4.976;2023-03-23T09:09:35;100400;;;13.5;100
66206;BME280;53009;52.490;4.976;2023-03-23T09:14:35;100400;;;13.6;100
66206;BME280;53009;52.490;4.976;2023-03-23T09:16:51;100400;;;13.6;100
66206;BME280;53009;52.490;4.976;2023-03-23T09:21:25;100500;;;13.9;100
66206;BME280;53009;52.490;4.976;2023-03-23T09:24:31;101100;;;13.9;100
66206;BME280;53009;52.490;4.976;2023-03-23T09:25:37;101100;;;13.9;100
66206;BME280;53009;52.490;4.976;2023-03-23T09:30:54;100600;;;13.5;100
66206;BME280;53009;52.490;4.976;2023-03-23T09:31:50;100500;;;13.5;100
66206;BME280;53009;52.490;4.976;2023-03-23T09:36:51;100400;;;13.6;100
66206;BME280;53009;52.490;4.976;2023-03-23T09:41:38;100400;;;13.8;100
66206;BME280;53009;52.490;4.976;2023-03-23T09:45:41;100500;;;13.8;100
66206;BME280;53009;52.490;4.976;2023-03-23T09:46:48;100400;;;13.9;100
66206;BME280;53009;52.490;4.976;2023-03-23T09:50:57;101000;;;14.3;100
66206;BME280;53009;52.490;4.976;2023-03-23T09:53:03;101100;;;14.2;100
66206;BME280;53009;52.490;4.976;2023-03-23T09:55:50;102800;;;14.1;100
66206;BME280;53009;52.490;4.976;2023-03-23T10:00:55;101200;;;14.2;100
66206;BME280;53009;52.490;4.976;2023-03-23T10:02:10;101200;;;14.2;100
66206;BME280;53009;52.490;4.976;2023-03-23T10:04:24;100900;;;14.2;100
66206;BME280;53009;52.490;4.976;2023-03-23T10:05:25;100800;;;14.3;100
66206;BME280;53009;52.490;4.976;2023-03-23T10:08:28;101200;;;14.4;100
66206;BME280;53009;52.490;4.976;2023-03-23T10:09:37;101300;;;14.4;100
66206;BME280;53009;52.490;4.976;2023-03-23T10:14:41;100800;;;14.4;100
66206;BME280;53009;52.490;4.976;2023-03-23T10:19:38;100700;;;14.1;100
66206;BME280;53009;52.490;4.976;2023-03-23T10:24:39;100900;;;14.3;100
66206;BME280;53009;52.490;4.976;2023-03-23T10:29:37;101400;;;14.5;100
66206;BME280;53009;52.490;4.976;2023-03-23T10:34:40;102300;;;14.6;100
66206;BME280;53009;52.490;4.976;2023-03-23T10:39:38;106000;;;14.3;100
66206;BME280;53009;52.490;4.976;2023-03-23T10:44:36;41400;;;14.3;100
66206;BME280;53009;52.490;4.976;2023-03-23T10:49:38;41400;;;14.1;100
66206;BME280;53009;52.490;4.976;2023-03-23T10:54:37;41400;;;14.5;100
66206;BME280;53009;52.490;4.976;2023-03-23T10:59:39;41400;;;14.7;100
66206;BME280;53009;52.490;4.976;2023-03-23T11:04:37;41400;;;14.8;100
66206;BME280;53009;52.490;4.976;2023-03-23T11:09:37;41400;;;15.1;100
66206;BME280;53009;52.490;4.976;2023-03-23T11:14:36;41400;;;14.7;100
66206;BME280;53009;52.490;4.976;2023-03-23T11:19:37;41400;;;14.7;100
66206;BME280;53009;52.490;4.976;2023-03-23T11:24:46;41400;;;15.1;100
66206;BME280;53009;52.490;4.976;2023-03-23T11:29:48;41400;;;15;100
66206;BME280;53009;52.490;4.976;2023-03-23T11:34:40;41400;;;15.2;100
66206;BME280;53009;52.490;4.976;2023-03-23T11:39:45;41400;;;14.8;100
66206;BME280;53009;52.490;4.976;2023-03-23T11:44:40;41400;;;14.4;100
66206;BME280;53009;52.490;4.976;2023-03-23T11:49:39;41400;;;14.3;100
66206;BME280;53009;52.490;4.976;2023-03-23T11:54:38;41400;;;14.7;100
66206;BME280;53009;52.490;4.976;2023-03-23T11:59:37;41400;;;14.9;100
66206;BME280;53009;52.490;4.976;2023-03-23T12:04:43;41400;;;14.7;100
66206;BME280;53009;52.490;4.976;2023-03-23T12:09:39;41400;;;14.7;100
66206;BME280;53009;52.490;4.976;2023-03-23T12:10:36;41400;;;14.7;100
66206;BME280;53009;52.490;4.976;2023-03-23T12:11:02;41400;;;14.8;100
66206;BME280;53009;52.490;4.976;2023-03-23T12:13:06;41400;;;15;100
66206;BME280;53009;52.490;4.976;2023-03-23T12:15:18;41400;;;15.3;100
66206;BME280;53009;52.490;4.976;2023-03-23T12:16:21;41400;;;15.4;100
66206;BME280;53009;52.490;4.976;2023-03-23T12:18:03;41400;;;15.2;100
66206;BME280;53009;52.490;4.976;2023-03-23T12:22:55;41400;;;15;100
66206;BME280;53009;52.490;4.976;2023-03-23T12:25:09;41400;;;15.1;100
66206;BME280;53009;52.490;4.976;2023-03-23T12:28:13;41400;;;15.2;100
66206;BME280;53009;52.490;4.976;2023-03-23T12:33:13;41400;;;15.4;100
66206;BME280;53009;52.490;4.976;2023-03-23T12:38:15;41400;;;15.8;100
66206;BME280;53009;52.490;4.976;2023-03-23T12:43:13;41400;;;15.6;100
66206;BME280;53009;52.490;4.976;2023-03-23T12:48:11;41400;;;15.5;100
66206;BME280;53009;52.490;4.976;2023-03-23T12:53:11;41400;;;15.4;100
66206;BME280;53009;52.490;4.976;2023-03-23T12:58:12;41400;;;15.6;100
66206;BME280;53009;52.490;4.976;2023-03-23T13:03:14;41400;;;15.6;100
66206;BME280;53009;52.490;4.976;2023-03-23T13:08:12;41400;;;15;100
66206;BME280;53009;52.490;4.976;2023-03-23T13:13:13;41400;;;15.3;100
66206;BME280;53009;52.490;4.976;2023-03-23T13:18:13;41400;;;15.4;100
66206;BME280;53009;52.490;4.976;2023-03-23T13:23:11;41400;;;15.4;100
66206;BME280;53009;52.490;4.976;2023-03-23T13:28:13;41400;;;15.5;100
66206;BME280;53009;52.490;4.976;2023-03-23T13:33:11;41400;;;15.2;100
66206;BME280;53009;52.490;4.976;2023-03-23T13:38:12;41400;;;15.2;100
66206;BME280;53009;52.490;4.976;2023-03-23T13:43:11;41400;;;15;100
66206;BME280;53009;52.490;4.976;2023-03-23T13:48:19;41400;;;14.8;100
66206;BME280;53009;52.490;4.976;2023-03-23T13:53:13;41400;;;15;100
66206;BME280;53009;52.490;4.976;2023-03-23T13:58:20;41400;;;15.3;100
66206;BME280;53009;52.490;4.976;2023-03-23T14:03:12;41400;;;15.3;100
66206;BME280;53009;52.490;4.976;2023-03-23T14:08:12;41400;;;15.2;100
66206;BME280;53009;52.490;4.976;2023-03-23T14:13:14;41400;;;15.3;100
66206;BME280;53009;52.490;4.976;2023-03-23T14:18:13;41400;;;15.1;100
66206;BME280;53009;52.490;4.976;2023-03-23T14:23:14;41400;;;14.9;100
66206;BME280;53009;52.490;4.976;2023-03-23T14:28:16;41400;;;15.1;100
66206;BME280;53009;52.490;4.976;2023-03-23T14:33:11;41400;;;15.7;100
66206;BME280;53009;52.490;4.976;2023-03-23T14:38:13;41400;;;15.6;100
66206;BME280;53009;52.490;4.976;2023-03-23T14:43:12;41400;;;15.4;100
66206;BME280;53009;52.490;4.976;2023-03-23T14:48:12;41400;;;15.6;100
66206;BME280;53009;52.490;4.976;2023-03-23T14:53:11;41400;;;15.6;100
66206;BME280;53009;52.490;4.976;2023-03-23T14:58:12;41400;;;15.6;100
66206;BME280;53009;52.490;4.976;2023-03-23T15:03:12;41400;;;15.5;100
66206;BME280;53009;52.490;4.976;2023-03-23T15:08:12;41400;;;15.6;100
66206;BME280;53009;52.490;4.976;2023-03-23T15:13:11;41400;;;15.4;100
66206;BME280;53009;52.490;4.976;2023-03-23T15:18:17;41400;;;15.4;100
66206;BME280;53009;52.490;4.976;2023-03-23T15:23:13;41400;;;15.4;100
66206;BME280;53009;52.490;4.976;2023-03-23T15:28:16;41400;;;15.3;100
66206;BME280;53009;52.490;4.976;2023-03-23T15:33:12;41400;;;15;100
66206;BME280;53009;52.490;4.976;2023-03-23T15:38:17;41400;;;14.8;100
66206;BME280;53009;52.490;4.976;2023-03-23T15:43:15;41400;;;14.8;100
66206;BME280;53009;52.490;4.976;2023-03-23T15:48:11;41400;;;15;100
66206;BME280;53009;52.490;4.976;2023-03-23T15:53:19;41400;;;15.1;100
66206;BME280;53009;52.490;4.976;2023-03-23T15:58:11;41400;;;15.1;100
66206;BME280;53009;52.490;4.976;2023-03-23T16:03:11;41400;;;15.2;100
66206;BME280;53009;52.490;4.976;2023-03-23T16:08:11;41400;;;15.3;100
66206;BME280;53009;52.490;4.976;2023-03-23T16:13:11;41400;;;15.1;100
66206;BME280;53009;52.490;4.976;2023-03-23T16:18:13;41400;;;14.8;100
66206;BME280;53009;52.490;4.976;2023-03-23T16:23:11;41400;;;14.6;100
66206;BME280;53009;52.490;4.976;2023-03-23T16:28:11;41400;;;14.6;100
66206;BME280;53009;52.490;4.976;2023-03-23T16:33:11;41400;;;14.6;100
66206;BME280;53009;52.490;4.976;2023-03-23T16:38:12;41400;;;14.6;100
66206;BME280;53009;52.490;4.976;2023-03-23T16:43:11;41400;;;14.5;100
66206;BME280;53009;52.490;4.976;2023-03-23T16:48:11;41400;;;14.5;100
66206;BME280;53009;52.490;4.976;2023-03-23T16:53:11;41400;;;14.4;100
66206;BME280;53009;52.490;4.976;2023-03-23T16:58:11;41400;;;14.4;100
66206;BME280;53009;52.490;4.976;2023-03-23T17:03:11;41400;;;14.3;100
66206;BME280;53009;52.490;4.976;2023-03-23T17:08:11;41400;;;14.3;100
66206;BME280;53009;52.490;4.976;2023-03-23T17:13:11;41400;;;14.2;100
66206;BME280;53009;52.490;4.976;2023-03-23T17:18:11;41400;;;14.2;100
66206;BME280;53009;52.490;4.976;2023-03-23T17:23:11;41400;;;14.2;100
66206;BME280;53009;52.490;4.976;2023-03-23T17:28:11;41400;;;14.2;100
66206;BME280;53009;52.490;4.976;2023-03-23T17:33:11;41400;;;14.2;100
66206;BME280;53009;52.490;4.976;2023-03-23T17:38:12;41400;;;14.1;100
66206;BME280;53009;52.490;4.976;2023-03-23T17:43:12;41400;;;14.1;100
66206;BME280;53009;52.490;4.976;2023-03-23T17:48:12;41400;;;14.1;100
66206;BME280;53009;52.490;4.976;2023-03-23T17:53:12;41400;;;14;100
66206;BME280;53009;52.490;4.976;2023-03-23T17:58:12;41400;;;14;100
66206;BME280;53009;52.490;4.976;2023-03-23T18:03:12;41400;;;14;100
66206;BME280;53009;52.490;4.976;2023-03-23T18:08:12;41400;;;14;100
66206;BME280;53009;52.490;4.976;2023-03-23T18:13:12;41400;;;13.9;100
66206;BME280;53009;52.490;4.976;2023-03-23T18:18:12;41400;;;13.9;100
66206;BME280;53009;52.490;4.976;2023-03-23T18:23:12;41400;;;13.9;100
66206;BME280;53009;52.490;4.976;2023-03-23T18:28:12;41400;;;13.9;100
66206;BME280;53009;52.490;4.976;2023-03-23T18:33:12;41400;;;13.9;100
66206;BME280;53009;52.490;4.976;2023-03-23T18:38:12;41400;;;13.8;100
66206;BME280;53009;52.490;4.976;2023-03-23T18:43:12;41400;;;13.8;100